sensor_id;sensor_type;location;lat;lon;timestamp;P1;durP1;ratioP1;P2;durP2;ratioP2
14396;SDS011;50653;47.810;13.022;2023-03-08T00:01:17;19.98;;;16.33;;
14396;SDS011;50653;47.810;13.022;2023-03-08T00:03:44;20.98;;;16.35;;
14396;SDS011;50653;47.810;13.022;2023-03-08T00:06:12;19.33;;;15.50;;
14396;SDS011;50653;47.810;13.022;2023-03-08T00:08:39;21.75;;;16.90;;
14396;SDS011;50653;47.810;13.022;2023-03-08T00:11:06;19.75;;;15.70;;
14396;SDS011;50653;47.810;13.022;2023-03-08T00:13:33;22.13;;;16.10;;
14396;SDS011;50653;47.810;13.022;2023-03-08T00:15:59;19.33;;;15.27;;
14396;SDS011;50653;47.810;13.022;2023-03-08T00:18:30;19.42;;;15.35;;
14396;SDS011;50653;47.810;13.022;2023-03-08T00:21:06;18.77;;;15.15;;
14396;SDS011;50653;47.810;13.022;2023-03-08T00:23:39;18.48;;;15.45;;
14396;SDS011;50653;47.810;13.022;2023-03-08T00:26:06;21.90;;;15.07;;
14396;SDS011;50653;47.810;13.022;2023-03-08T00:28:32;24.13;;;16.73;;
14396;SDS011;50653;47.810;13.022;2023-03-08T00:30:59;24.27;;;16.33;;
14396;SDS011;50653;47.810;13.022;2023-03-08T00:33:27;21.40;;;16.85;;
14396;SDS011;50653;47.810;13.022;2023-03-08T00:35:55;19.15;;;16.67;;
14396;SDS011;50653;47.810;13.022;2023-03-08T00:38:29;21.45;;;17.38;;
14396;SDS011;50653;47.810;13.022;2023-03-08T00:40:55;22.37;;;16.90;;
14396;SDS011;50653;47.810;13.022;2023-03-08T00:43:21;18.43;;;15.97;;
14396;SDS011;50653;47.810;13.022;2023-03-08T00:45:47;19.77;;;16.40;;
14396;SDS011;50653;47.810;13.022;2023-03-08T00:48:13;21.02;;;16.48;;
14396;SDS011;50653;47.810;13.022;2023-03-08T00:50:39;23.70;;;17.70;;
14396;SDS011;50653;47.810;13.022;2023-03-08T00:53:05;24.55;;;17.30;;
14396;SDS011;50653;47.810;13.022;2023-03-08T00:55:32;21.67;;;17.50;;
14396;SDS011;50653;47.810;13.022;2023-03-08T00:57:58;22.77;;;16.90;;
14396;SDS011;50653;47.810;13.022;2023-03-08T01:00:24;25.00;;;18.00;;
14396;SDS011;50653;47.810;13.022;2023-03-08T01:02:50;26.00;;;18.60;;
14396;SDS011;50653;47.810;13.022;2023-03-08T01:05:15;24.67;;;17.42;;
14396;SDS011;50653;47.810;13.022;2023-03-08T01:07:42;26.27;;;17.38;;
14396;SDS011;50653;47.810;13.022;2023-03-08T01:10:08;22.60;;;16.63;;
14396;SDS011;50653;47.810;13.022;2023-03-08T01:12:35;24.60;;;18.08;;
14396;SDS011;50653;47.810;13.022;2023-03-08T01:15:02;27.95;;;18.02;;
14396;SDS011;50653;47.810;13.022;2023-03-08T01:17:29;24.10;;;17.60;;
14396;SDS011;50653;47.810;13.022;2023-03-08T01:19:55;24.70;;;17.70;;
14396;SDS011;50653;47.810;13.022;2023-03-08T01:22:21;22.70;;;17.75;;
14396;SDS011;50653;47.810;13.022;2023-03-08T01:24:46;26.65;;;19.10;;
14396;SDS011;50653;47.810;13.022;2023-03-08T01:27:13;27.98;;;19.45;;
14396;SDS011;50653;47.810;13.022;2023-03-08T01:29:40;22.33;;;17.13;;
14396;SDS011;50653;47.810;13.022;2023-03-08T01:32:07;25.35;;;17.75;;
14396;SDS011;50653;47.810;13.022;2023-03-08T01:34:37;22.27;;;17.38;;
14396;SDS011;50653;47.810;13.022;2023-03-08T01:37:03;24.38;;;17.67;;
14396;SDS011;50653;47.810;13.022;2023-03-08T01:39:29;23.10;;;17.45;;
14396;SDS011;50653;47.810;13.022;2023-03-08T01:41:54;26.95;;;19.00;;
14396;SDS011;50653;47.810;13.022;2023-03-08T01:44:20;24.55;;;18.83;;
14396;SDS011;50653;47.810;13.022;2023-03-08T01:46:51;22.15;;;17.58;;
14396;SDS011;50653;47.810;13.022;2023-03-08T01:49:25;21.88;;;17.40;;
14396;SDS011;50653;47.810;13.022;2023-03-08T01:52:02;22.00;;;16.85;;
14396;SDS011;50653;47.810;13.022;2023-03-08T01:54:34;24.88;;;18.10;;
14396;SDS011;50653;47.810;13.022;2023-03-08T02:00:00;24.42;;;18.15;;
14396;SDS011;50653;47.810;13.022;2023-03-08T02:05:32;24.33;;;19.33;;
14396;SDS011;50653;47.810;13.022;2023-03-08T02:08:08;24.53;;;19.30;;
14396;SDS011;50653;47.810;13.022;2023-03-08T02:10:36;26.30;;;20.33;;
14396;SDS011;50653;47.810;13.022;2023-03-08T02:13:03;24.35;;;19.75;;
14396;SDS011;50653;47.810;13.022;2023-03-08T02:15:30;27.77;;;19.73;;
14396;SDS011;50653;47.810;13.022;2023-03-08T02:17:56;25.40;;;19.47;;
14396;SDS011;50653;47.810;13.022;2023-03-08T02:20:32;24.47;;;20.43;;
14396;SDS011;50653;47.810;13.022;2023-03-08T02:25:39;25.60;;;19.30;;
14396;SDS011;50653;47.810;13.022;2023-03-08T02:28:13;28.20;;;20.55;;
14396;SDS011;50653;47.810;13.022;2023-03-08T02:30:39;26.30;;;20.77;;
14396;SDS011;50653;47.810;13.022;2023-03-08T02:33:13;27.03;;;20.50;;
14396;SDS011;50653;47.810;13.022;2023-03-08T02:35:39;25.95;;;20.17;;
14396;SDS011;50653;47.810;13.022;2023-03-08T02:38:07;24.52;;;19.23;;
14396;SDS011;50653;47.810;13.022;2023-03-08T02:40:34;25.50;;;19.43;;
14396;SDS011;50653;47.810;13.022;2023-03-08T02:43:00;29.80;;;20.45;;
14396;SDS011;50653;47.810;13.022;2023-03-08T02:45:26;25.47;;;18.73;;
14396;SDS011;50653;47.810;13.022;2023-03-08T02:47:52;27.13;;;19.27;;
14396;SDS011;50653;47.810;13.022;2023-03-08T02:50:18;28.40;;;19.70;;
14396;SDS011;50653;47.810;13.022;2023-03-08T02:52:44;25.07;;;19.57;;
14396;SDS011;50653;47.810;13.022;2023-03-08T02:55:09;24.50;;;18.80;;
14396;SDS011;50653;47.810;13.022;2023-03-08T02:57:35;26.63;;;20.70;;
14396;SDS011;50653;47.810;13.022;2023-03-08T03:00:03;26.75;;;19.92;;
14396;SDS011;50653;47.810;13.022;2023-03-08T03:02:31;26.52;;;20.58;;
14396;SDS011;50653;47.810;13.022;2023-03-08T03:04:57;26.40;;;19.92;;
14396;SDS011;50653;47.810;13.022;2023-03-08T03:07:24;24.17;;;19.88;;
14396;SDS011;50653;47.810;13.022;2023-03-08T03:09:50;23.65;;;19.35;;
14396;SDS011;50653;47.810;13.022;2023-03-08T03:12:16;26.73;;;21.40;;
14396;SDS011;50653;47.810;13.022;2023-03-08T03:14:42;27.08;;;21.20;;
14396;SDS011;50653;47.810;13.022;2023-03-08T03:17:08;27.10;;;20.77;;
14396;SDS011;50653;47.810;13.022;2023-03-08T03:19:34;27.02;;;20.58;;
14396;SDS011;50653;47.810;13.022;2023-03-08T03:22:01;30.83;;;22.13;;
14396;SDS011;50653;47.810;13.022;2023-03-08T03:24:28;26.08;;;21.20;;
14396;SDS011;50653;47.810;13.022;2023-03-08T03:26:56;28.45;;;21.80;;
14396;SDS011;50653;47.810;13.022;2023-03-08T03:29:25;29.25;;;21.50;;
14396;SDS011;50653;47.810;13.022;2023-03-08T03:31:58;33.25;;;23.75;;
14396;SDS011;50653;47.810;13.022;2023-03-08T03:34:24;28.35;;;20.95;;
14396;SDS011;50653;47.810;13.022;2023-03-08T03:36:50;24.90;;;21.30;;
14396;SDS011;50653;47.810;13.022;2023-03-08T03:39:16;28.08;;;21.55;;
14396;SDS011;50653;47.810;13.022;2023-03-08T03:41:43;33.22;;;22.63;;
14396;SDS011;50653;47.810;13.022;2023-03-08T03:44:12;27.50;;;21.85;;
14396;SDS011;50653;47.810;13.022;2023-03-08T03:46:39;31.85;;;22.50;;
14396;SDS011;50653;47.810;13.022;2023-03-08T03:49:07;30.77;;;21.90;;
14396;SDS011;50653;47.810;13.022;2023-03-08T03:51:37;29.00;;;21.77;;
14396;SDS011;50653;47.810;13.022;2023-03-08T03:54:12;28.77;;;20.58;;
14396;SDS011;50653;47.810;13.022;2023-03-08T03:56:40;30.38;;;21.35;;
14396;SDS011;50653;47.810;13.022;2023-03-08T03:59:06;33.13;;;22.40;;
14396;SDS011;50653;47.810;13.022;2023-03-08T04:01:31;33.50;;;23.77;;
14396;SDS011;50653;47.810;13.022;2023-03-08T04:04:04;35.35;;;22.77;;
14396;SDS011;50653;47.810;13.022;2023-03-08T04:06:34;29.55;;;22.60;;
14396;SDS011;50653;47.810;13.022;2023-03-08T04:09:01;25.70;;;20.02;;
14396;SDS011;50653;47.810;13.022;2023-03-08T04:11:33;27.40;;;21.45;;
14396;SDS011;50653;47.810;13.022;2023-03-08T04:14:02;26.75;;;21.52;;
14396;SDS011;50653;47.810;13.022;2023-03-08T04:16:30;27.85;;;21.92;;
14396;SDS011;50653;47.810;13.022;2023-03-08T04:19:06;29.63;;;21.57;;
14396;SDS011;50653;47.810;13.022;2023-03-08T04:21:36;26.38;;;21.25;;
14396;SDS011;50653;47.810;13.022;2023-03-08T04:24:02;27.70;;;22.37;;
14396;SDS011;50653;47.810;13.022;2023-03-08T04:26:29;28.13;;;21.70;;
14396;SDS011;50653;47.810;13.022;2023-03-08T04:28:55;28.90;;;21.90;;
14396;SDS011;50653;47.810;13.022;2023-03-08T04:31:25;26.20;;;20.58;;
14396;SDS011;50653;47.810;13.022;2023-03-08T04:33:53;27.60;;;21.27;;
14396;SDS011;50653;47.810;13.022;2023-03-08T04:36:20;32.75;;;21.85;;
14396;SDS011;50653;47.810;13.022;2023-03-08T04:38:46;26.27;;;21.08;;
14396;SDS011;50653;47.810;13.022;2023-03-08T04:41:13;29.48;;;22.25;;
14396;SDS011;50653;47.810;13.022;2023-03-08T04:43:59;26.70;;;21.20;;
14396;SDS011;50653;47.810;13.022;2023-03-08T04:46:34;32.63;;;22.23;;
14396;SDS011;50653;47.810;13.022;2023-03-08T04:49:00;29.63;;;22.00;;
14396;SDS011;50653;47.810;13.022;2023-03-08T04:51:34;29.13;;;21.42;;
14396;SDS011;50653;47.810;13.022;2023-03-08T04:54:03;29.75;;;21.35;;
14396;SDS011;50653;47.810;13.022;2023-03-08T04:56:29;25.95;;;21.40;;
14396;SDS011;50653;47.810;13.022;2023-03-08T04:58:56;32.35;;;21.83;;
14396;SDS011;50653;47.810;13.022;2023-03-08T05:01:24;30.15;;;21.90;;
14396;SDS011;50653;47.810;13.022;2023-03-08T05:03:51;32.93;;;22.53;;
14396;SDS011;50653;47.810;13.022;2023-03-08T05:06:23;30.50;;;22.75;;
14396;SDS011;50653;47.810;13.022;2023-03-08T05:08:51;25.37;;;21.50;;
14396;SDS011;50653;47.810;13.022;2023-03-08T05:11:18;28.40;;;21.35;;
14396;SDS011;50653;47.810;13.022;2023-03-08T05:13:51;30.85;;;22.30;;
14396;SDS011;50653;47.810;13.022;2023-03-08T05:16:19;30.90;;;22.67;;
14396;SDS011;50653;47.810;13.022;2023-03-08T05:18:45;28.37;;;22.70;;
14396;SDS011;50653;47.810;13.022;2023-03-08T05:21:13;27.08;;;21.42;;
14396;SDS011;50653;47.810;13.022;2023-03-08T05:23:45;34.67;;;23.57;;
14396;SDS011;50653;47.810;13.022;2023-03-08T05:26:14;30.10;;;21.98;;
14396;SDS011;50653;47.810;13.022;2023-03-08T05:28:41;31.90;;;24.48;;
14396;SDS011;50653;47.810;13.022;2023-03-08T05:31:15;27.95;;;22.35;;
14396;SDS011;50653;47.810;13.022;2023-03-08T05:33:43;30.20;;;23.73;;
14396;SDS011;50653;47.810;13.022;2023-03-08T05:36:13;28.88;;;22.60;;
14396;SDS011;50653;47.810;13.022;2023-03-08T05:38:39;28.23;;;22.40;;
14396;SDS011;50653;47.810;13.022;2023-03-08T05:41:10;27.35;;;20.85;;
14396;SDS011;50653;47.810;13.022;2023-03-08T05:43:38;32.50;;;23.15;;
14396;SDS011;50653;47.810;13.022;2023-03-08T05:46:07;31.10;;;23.33;;
14396;SDS011;50653;47.810;13.022;2023-03-08T05:48:36;29.88;;;22.10;;
14396;SDS011;50653;47.810;13.022;2023-03-08T05:51:10;29.23;;;22.17;;
14396;SDS011;50653;47.810;13.022;2023-03-08T05:53:37;27.85;;;22.08;;
14396;SDS011;50653;47.810;13.022;2023-03-08T05:58:51;28.75;;;22.42;;
14396;SDS011;50653;47.810;13.022;2023-03-08T06:01:18;28.00;;;21.75;;
14396;SDS011;50653;47.810;13.022;2023-03-08T06:03:47;29.65;;;22.58;;
14396;SDS011;50653;47.810;13.022;2023-03-08T06:06:16;27.58;;;20.90;;
14396;SDS011;50653;47.810;13.022;2023-03-08T06:08:43;30.30;;;22.30;;
14396;SDS011;50653;47.810;13.022;2023-03-08T06:11:10;26.20;;;21.05;;
14396;SDS011;50653;47.810;13.022;2023-03-08T06:13:36;28.17;;;21.13;;
14396;SDS011;50653;47.810;13.022;2023-03-08T06:16:02;27.87;;;21.80;;
14396;SDS011;50653;47.810;13.022;2023-03-08T06:18:31;27.35;;;20.02;;
14396;SDS011;50653;47.810;13.022;2023-03-08T06:23:26;32.35;;;22.60;;
14396;SDS011;50653;47.810;13.022;2023-03-08T06:25:52;29.98;;;22.65;;
14396;SDS011;50653;47.810;13.022;2023-03-08T06:28:18;27.15;;;20.50;;
14396;SDS011;50653;47.810;13.022;2023-03-08T06:30:45;27.90;;;21.92;;
14396;SDS011;50653;47.810;13.022;2023-03-08T06:33:19;26.73;;;21.42;;
14396;SDS011;50653;47.810;13.022;2023-03-08T06:38:23;27.83;;;19.75;;
14396;SDS011;50653;47.810;13.022;2023-03-08T06:40:49;25.95;;;20.42;;
14396;SDS011;50653;47.810;13.022;2023-03-08T06:43:15;26.70;;;20.58;;
14396;SDS011;50653;47.810;13.022;2023-03-08T06:45:40;27.27;;;20.60;;
14396;SDS011;50653;47.810;13.022;2023-03-08T06:48:06;30.98;;;20.60;;
14396;SDS011;50653;47.810;13.022;2023-03-08T06:50:33;32.28;;;22.23;;
14396;SDS011;50653;47.810;13.022;2023-03-08T06:52:58;31.58;;;24.13;;
14396;SDS011;50653;47.810;13.022;2023-03-08T06:55:38;29.52;;;21.33;;
14396;SDS011;50653;47.810;13.022;2023-03-08T06:58:06;33.47;;;24.40;;
14396;SDS011;50653;47.810;13.022;2023-03-08T07:00:32;28.35;;;23.02;;
14396;SDS011;50653;47.810;13.022;2023-03-08T07:02:58;31.50;;;23.85;;
14396;SDS011;50653;47.810;13.022;2023-03-08T07:05:24;30.38;;;22.45;;
14396;SDS011;50653;47.810;13.022;2023-03-08T07:07:50;36.03;;;24.00;;
14396;SDS011;50653;47.810;13.022;2023-03-08T07:10:17;31.30;;;22.77;;
14396;SDS011;50653;47.810;13.022;2023-03-08T07:12:44;34.78;;;24.30;;
14396;SDS011;50653;47.810;13.022;2023-03-08T07:15:13;33.47;;;24.73;;
14396;SDS011;50653;47.810;13.022;2023-03-08T07:17:43;32.30;;;24.25;;
14396;SDS011;50653;47.810;13.022;2023-03-08T07:20:10;30.05;;;22.08;;
14396;SDS011;50653;47.810;13.022;2023-03-08T07:22:37;27.80;;;21.90;;
14396;SDS011;50653;47.810;13.022;2023-03-08T07:25:06;30.40;;;22.02;;
14396;SDS011;50653;47.810;13.022;2023-03-08T07:27:32;31.63;;;22.77;;
14396;SDS011;50653;47.810;13.022;2023-03-08T07:29:58;34.67;;;23.20;;
14396;SDS011;50653;47.810;13.022;2023-03-08T07:32:23;34.10;;;23.70;;
14396;SDS011;50653;47.810;13.022;2023-03-08T07:34:53;31.60;;;22.95;;
14396;SDS011;50653;47.810;13.022;2023-03-08T07:37:22;30.73;;;22.70;;
14396;SDS011;50653;47.810;13.022;2023-03-08T07:39:48;29.77;;;22.58;;
14396;SDS011;50653;47.810;13.022;2023-03-08T07:42:14;28.58;;;21.95;;
14396;SDS011;50653;47.810;13.022;2023-03-08T07:44:43;30.92;;;21.80;;
14396;SDS011;50653;47.810;13.022;2023-03-08T07:47:09;32.33;;;22.13;;
14396;SDS011;50653;47.810;13.022;2023-03-08T07:49:35;27.10;;;19.60;;
14396;SDS011;50653;47.810;13.022;2023-03-08T07:52:01;24.80;;;20.43;;
14396;SDS011;50653;47.810;13.022;2023-03-08T07:54:26;29.00;;;21.07;;
14396;SDS011;50653;47.810;13.022;2023-03-08T07:56:52;25.83;;;20.10;;
14396;SDS011;50653;47.810;13.022;2023-03-08T07:59:20;26.13;;;19.40;;
14396;SDS011;50653;47.810;13.022;2023-03-08T08:01:46;29.80;;;21.75;;
14396;SDS011;50653;47.810;13.022;2023-03-08T08:04:12;25.50;;;20.37;;
14396;SDS011;50653;47.810;13.022;2023-03-08T08:06:38;28.90;;;20.70;;
14396;SDS011;50653;47.810;13.022;2023-03-08T08:09:04;24.85;;;19.35;;
14396;SDS011;50653;47.810;13.022;2023-03-08T08:11:31;31.60;;;19.25;;
14396;SDS011;50653;47.810;13.022;2023-03-08T08:13:58;23.48;;;18.33;;
14396;SDS011;50653;47.810;13.022;2023-03-08T08:16:24;25.75;;;20.13;;
14396;SDS011;50653;47.810;13.022;2023-03-08T08:18:51;28.27;;;20.40;;
14396;SDS011;50653;47.810;13.022;2023-03-08T08:21:17;25.20;;;19.50;;
14396;SDS011;50653;47.810;13.022;2023-03-08T08:23:43;28.95;;;20.52;;
14396;SDS011;50653;47.810;13.022;2023-03-08T08:26:10;25.30;;;19.83;;
14396;SDS011;50653;47.810;13.022;2023-03-08T08:28:44;28.45;;;21.52;;
14396;SDS011;50653;47.810;13.022;2023-03-08T08:31:12;26.77;;;19.83;;
14396;SDS011;50653;47.810;13.022;2023-03-08T08:33:40;28.30;;;20.48;;
14396;SDS011;50653;47.810;13.022;2023-03-08T08:36:13;29.38;;;21.30;;
14396;SDS011;50653;47.810;13.022;2023-03-08T08:38:40;23.33;;;18.30;;
14396;SDS011;50653;47.810;13.022;2023-03-08T08:41:07;25.30;;;18.90;;
14396;SDS011;50653;47.810;13.022;2023-03-08T08:43:34;24.85;;;19.83;;
14396;SDS011;50653;47.810;13.022;2023-03-08T08:46:00;24.15;;;18.67;;
14396;SDS011;50653;47.810;13.022;2023-03-08T08:48:27;24.50;;;18.77;;
14396;SDS011;50653;47.810;13.022;2023-03-08T08:50:54;22.52;;;18.25;;
14396;SDS011;50653;47.810;13.022;2023-03-08T08:53:19;26.13;;;19.37;;
14396;SDS011;50653;47.810;13.022;2023-03-08T08:55:46;29.63;;;19.02;;
14396;SDS011;50653;47.810;13.022;2023-03-08T08:58:13;28.33;;;19.17;;
14396;SDS011;50653;47.810;13.022;2023-03-08T09:00:39;27.35;;;19.27;;
14396;SDS011;50653;47.810;13.022;2023-03-08T09:03:05;25.00;;;18.80;;
14396;SDS011;50653;47.810;13.022;2023-03-08T09:05:31;26.67;;;19.00;;
14396;SDS011;50653;47.810;13.022;2023-03-08T09:07:59;27.90;;;17.58;;
14396;SDS011;50653;47.810;13.022;2023-03-08T09:10:27;24.52;;;19.15;;
14396;SDS011;50653;47.810;13.022;2023-03-08T09:12:54;23.42;;;18.42;;
14396;SDS011;50653;47.810;13.022;2023-03-08T09:15:22;25.48;;;17.92;;
14396;SDS011;50653;47.810;13.022;2023-03-08T09:17:48;25.55;;;18.92;;
14396;SDS011;50653;47.810;13.022;2023-03-08T09:20:14;21.87;;;18.60;;
14396;SDS011;50653;47.810;13.022;2023-03-08T09:22:40;25.50;;;17.70;;
14396;SDS011;50653;47.810;13.022;2023-03-08T09:25:06;24.80;;;18.33;;
14396;SDS011;50653;47.810;13.022;2023-03-08T09:27:32;24.85;;;18.63;;
14396;SDS011;50653;47.810;13.022;2023-03-08T09:29:58;23.85;;;18.48;;
14396;SDS011;50653;47.810;13.022;2023-03-08T09:32:24;28.63;;;18.30;;
14396;SDS011;50653;47.810;13.022;2023-03-08T09:34:51;21.80;;;18.00;;
14396;SDS011;50653;47.810;13.022;2023-03-08T09:37:17;25.33;;;18.42;;
14396;SDS011;50653;47.810;13.022;2023-03-08T09:39:43;24.58;;;18.92;;
14396;SDS011;50653;47.810;13.022;2023-03-08T09:42:17;26.40;;;19.33;;
14396;SDS011;50653;47.810;13.022;2023-03-08T09:44:50;21.63;;;17.13;;
14396;SDS011;50653;47.810;13.022;2023-03-08T09:47:30;24.05;;;17.80;;
14396;SDS011;50653;47.810;13.022;2023-03-08T09:52:41;24.58;;;17.35;;
14396;SDS011;50653;47.810;13.022;2023-03-08T09:55:18;24.40;;;17.90;;
14396;SDS011;50653;47.810;13.022;2023-03-08T09:57:50;21.08;;;17.65;;
14396;SDS011;50653;47.810;13.022;2023-03-08T10:00:19;23.45;;;17.13;;
14396;SDS011;50653;47.810;13.022;2023-03-08T10:08:32;22.88;;;18.65;;
14396;SDS011;50653;47.810;13.022;2023-03-08T10:11:09;22.27;;;17.20;;
14396;SDS011;50653;47.810;13.022;2023-03-08T10:13:46;20.42;;;16.73;;
14396;SDS011;50653;47.810;13.022;2023-03-08T10:16:21;21.30;;;16.40;;
14396;SDS011;50653;47.810;13.022;2023-03-08T10:19:04;21.45;;;15.07;;
14396;SDS011;50653;47.810;13.022;2023-03-08T10:21:39;23.88;;;16.17;;
14396;SDS011;50653;47.810;13.022;2023-03-08T10:26:51;18.42;;;15.75;;
14396;SDS011;50653;47.810;13.022;2023-03-08T10:29:36;21.73;;;16.60;;
14396;SDS011;50653;47.810;13.022;2023-03-08T10:32:01;18.80;;;15.73;;
14396;SDS011;50653;47.810;13.022;2023-03-08T10:34:30;20.80;;;16.08;;
14396;SDS011;50653;47.810;13.022;2023-03-08T10:37:00;18.80;;;15.10;;
14396;SDS011;50653;47.810;13.022;2023-03-08T10:39:28;17.15;;;15.02;;
14396;SDS011;50653;47.810;13.022;2023-03-08T10:42:01;25.88;;;16.02;;
14396;SDS011;50653;47.810;13.022;2023-03-08T10:44:36;23.55;;;15.27;;
14396;SDS011;50653;47.810;13.022;2023-03-08T10:49:48;18.40;;;15.30;;
14396;SDS011;50653;47.810;13.022;2023-03-08T10:52:27;22.00;;;16.42;;
14396;SDS011;50653;47.810;13.022;2023-03-08T11:05:34;19.75;;;14.73;;
14396;SDS011;50653;47.810;13.022;2023-03-08T11:08:00;17.53;;;14.77;;
14396;SDS011;50653;47.810;13.022;2023-03-08T11:10:29;17.17;;;14.00;;
14396;SDS011;50653;47.810;13.022;2023-03-08T11:13:02;19.48;;;15.27;;
14396;SDS011;50653;47.810;13.022;2023-03-08T11:15:37;21.77;;;15.13;;
14396;SDS011;50653;47.810;13.022;2023-03-08T11:21:17;17.17;;;14.80;;
14396;SDS011;50653;47.810;13.022;2023-03-08T11:26:39;16.05;;;14.07;;
14396;SDS011;50653;47.810;13.022;2023-03-08T11:35:19;16.48;;;14.77;;
14396;SDS011;50653;47.810;13.022;2023-03-08T11:38:02;20.45;;;14.95;;
14396;SDS011;50653;47.810;13.022;2023-03-08T11:54:31;19.43;;;14.23;;
14396;SDS011;50653;47.810;13.022;2023-03-08T11:57:20;16.92;;;14.77;;
14396;SDS011;50653;47.810;13.022;2023-03-08T11:59:57;18.13;;;14.90;;
14396;SDS011;50653;47.810;13.022;2023-03-08T12:02:39;16.90;;;15.10;;
14396;SDS011;50653;47.810;13.022;2023-03-08T12:07:46;18.60;;;15.38;;
14396;SDS011;50653;47.810;13.022;2023-03-08T12:10:21;18.65;;;14.93;;
14396;SDS011;50653;47.810;13.022;2023-03-08T12:13:04;21.80;;;17.02;;
14396;SDS011;50653;47.810;13.022;2023-03-08T12:15:51;20.87;;;16.00;;
14396;SDS011;50653;47.810;13.022;2023-03-08T12:18:39;17.88;;;15.13;;
14396;SDS011;50653;47.810;13.022;2023-03-08T12:23:52;17.33;;;14.00;;
14396;SDS011;50653;47.810;13.022;2023-03-08T12:26:24;17.85;;;14.68;;
14396;SDS011;50653;47.810;13.022;2023-03-08T12:29:03;19.27;;;15.00;;
14396;SDS011;50653;47.810;13.022;2023-03-08T12:31:37;18.65;;;15.23;;
14396;SDS011;50653;47.810;13.022;2023-03-08T12:34:11;16.70;;;14.43;;
14396;SDS011;50653;47.810;13.022;2023-03-08T12:36:53;19.70;;;14.73;;
14396;SDS011;50653;47.810;13.022;2023-03-08T12:39:27;17.70;;;15.53;;
14396;SDS011;50653;47.810;13.022;2023-03-08T12:42:01;19.40;;;15.57;;
14396;SDS011;50653;47.810;13.022;2023-03-08T12:44:30;17.27;;;14.82;;
14396;SDS011;50653;47.810;13.022;2023-03-08T12:46:59;19.15;;;14.30;;
14396;SDS011;50653;47.810;13.022;2023-03-08T12:49:44;22.42;;;15.07;;
14396;SDS011;50653;47.810;13.022;2023-03-08T12:54:42;19.00;;;14.70;;
14396;SDS011;50653;47.810;13.022;2023-03-08T12:57:31;19.35;;;14.25;;
14396;SDS011;50653;47.810;13.022;2023-03-08T13:00:06;19.40;;;15.80;;
14396;SDS011;50653;47.810;13.022;2023-03-08T13:05:36;24.42;;;17.20;;
14396;SDS011;50653;47.810;13.022;2023-03-08T13:16:15;23.60;;;18.63;;
14396;SDS011;50653;47.810;13.022;2023-03-08T13:18:45;22.33;;;18.20;;
14396;SDS011;50653;47.810;13.022;2023-03-08T13:21:16;21.70;;;18.58;;
14396;SDS011;50653;47.810;13.022;2023-03-08T13:23:46;23.70;;;18.33;;
14396;SDS011;50653;47.810;13.022;2023-03-08T13:28:43;19.07;;;15.23;;
14396;SDS011;50653;47.810;13.022;2023-03-08T13:31:19;18.70;;;14.23;;
14396;SDS011;50653;47.810;13.022;2023-03-08T13:33:53;25.10;;;14.80;;
14396;SDS011;50653;47.810;13.022;2023-03-08T13:38:55;19.70;;;14.30;;
14396;SDS011;50653;47.810;13.022;2023-03-08T13:41:32;21.90;;;15.70;;
14396;SDS011;50653;47.810;13.022;2023-03-08T13:44:03;16.20;;;12.63;;
14396;SDS011;50653;47.810;13.022;2023-03-08T13:46:37;17.53;;;13.83;;
14396;SDS011;50653;47.810;13.022;2023-03-08T13:49:16;18.97;;;14.33;;
14396;SDS011;50653;47.810;13.022;2023-03-08T13:51:46;19.40;;;14.20;;
14396;SDS011;50653;47.810;13.022;2023-03-08T13:54:15;27.10;;;15.10;;
14396;SDS011;50653;47.810;13.022;2023-03-08T13:56:54;19.03;;;13.70;;
14396;SDS011;50653;47.810;13.022;2023-03-08T13:59:21;19.43;;;13.77;;
14396;SDS011;50653;47.810;13.022;2023-03-08T14:01:47;24.23;;;15.33;;
14396;SDS011;50653;47.810;13.022;2023-03-08T14:04:16;23.43;;;13.80;;
14396;SDS011;50653;47.810;13.022;2023-03-08T14:06:51;18.50;;;13.70;;
14396;SDS011;50653;47.810;13.022;2023-03-08T14:09:21;24.30;;;15.20;;
14396;SDS011;50653;47.810;13.022;2023-03-08T14:11:55;18.40;;;13.87;;
14396;SDS011;50653;47.810;13.022;2023-03-08T14:14:33;26.90;;;16.37;;
14396;SDS011;50653;47.810;13.022;2023-03-08T14:17:01;20.50;;;13.37;;
14396;SDS011;50653;47.810;13.022;2023-03-08T14:19:37;18.87;;;13.80;;
14396;SDS011;50653;47.810;13.022;2023-03-08T14:22:11;23.50;;;14.60;;
14396;SDS011;50653;47.810;13.022;2023-03-08T14:24:39;19.20;;;13.23;;
14396;SDS011;50653;47.810;13.022;2023-03-08T14:29:37;21.70;;;15.47;;
14396;SDS011;50653;47.810;13.022;2023-03-08T14:39:45;17.70;;;13.87;;
14396;SDS011;50653;47.810;13.022;2023-03-08T14:45:00;18.77;;;13.77;;
14396;SDS011;50653;47.810;13.022;2023-03-08T14:47:32;20.83;;;12.93;;
14396;SDS011;50653;47.810;13.022;2023-03-08T14:50:03;20.83;;;13.10;;
14396;SDS011;50653;47.810;13.022;2023-03-08T14:52:44;16.43;;;14.00;;
14396;SDS011;50653;47.810;13.022;2023-03-08T14:55:24;19.83;;;14.43;;
14396;SDS011;50653;47.810;13.022;2023-03-08T14:57:56;18.50;;;13.40;;
14396;SDS011;50653;47.810;13.022;2023-03-08T15:00:24;21.17;;;13.70;;
14396;SDS011;50653;47.810;13.022;2023-03-08T15:02:55;22.27;;;14.07;;
14396;SDS011;50653;47.810;13.022;2023-03-08T15:05:22;24.63;;;14.30;;
14396;SDS011;50653;47.810;13.022;2023-03-08T15:07:49;22.23;;;13.63;;
14396;SDS011;50653;47.810;13.022;2023-03-08T15:10:18;18.73;;;13.60;;
14396;SDS011;50653;47.810;13.022;2023-03-08T15:13:01;17.90;;;11.80;;
14396;SDS011;50653;47.810;13.022;2023-03-08T15:15:27;25.60;;;14.03;;
14396;SDS011;50653;47.810;13.022;2023-03-08T15:17:53;20.57;;;13.70;;
14396;SDS011;50653;47.810;13.022;2023-03-08T15:20:18;15.80;;;12.63;;
14396;SDS011;50653;47.810;13.022;2023-03-08T15:22:46;19.20;;;12.80;;
14396;SDS011;50653;47.810;13.022;2023-03-08T15:25:25;19.27;;;12.47;;
14396;SDS011;50653;47.810;13.022;2023-03-08T15:28:02;14.67;;;11.30;;
14396;SDS011;50653;47.810;13.022;2023-03-08T15:30:29;17.83;;;11.70;;
14396;SDS011;50653;47.810;13.022;2023-03-08T15:32:55;14.40;;;11.40;;
14396;SDS011;50653;47.810;13.022;2023-03-08T15:35:22;16.00;;;10.97;;
14396;SDS011;50653;47.810;13.022;2023-03-08T15:37:48;15.77;;;10.40;;
14396;SDS011;50653;47.810;13.022;2023-03-08T15:40:15;19.00;;;10.47;;
14396;SDS011;50653;47.810;13.022;2023-03-08T15:42:46;18.53;;;12.10;;
14396;SDS011;50653;47.810;13.022;2023-03-08T15:45:12;19.83;;;13.80;;
14396;SDS011;50653;47.810;13.022;2023-03-08T15:47:39;22.90;;;13.70;;
14396;SDS011;50653;47.810;13.022;2023-03-08T15:50:05;17.80;;;10.87;;
14396;SDS011;50653;47.810;13.022;2023-03-08T15:52:41;20.33;;;12.23;;
14396;SDS011;50653;47.810;13.022;2023-03-08T15:55:09;17.30;;;11.70;;
14396;SDS011;50653;47.810;13.022;2023-03-08T15:57:38;16.27;;;11.80;;
14396;SDS011;50653;47.810;13.022;2023-03-08T16:00:05;14.57;;;12.07;;
14396;SDS011;50653;47.810;13.022;2023-03-08T16:02:36;21.20;;;13.23;;
14396;SDS011;50653;47.810;13.022;2023-03-08T16:05:03;17.80;;;12.10;;